sensor_id;sensor_type;location;lat;lon;timestamp;temperature;humidity
43679;DHT22;29279;50.858;4.392;2023-05-15T00:02:17;13.80;99.90
43679;DHT22;29279;50.858;4.392;2023-05-15T00:04:43;13.80;99.90
43679;DHT22;29279;50.858;4.392;2023-05-15T00:07:08;13.80;99.90
43679;DHT22;29279;50.858;4.392;2023-05-15T00:09:35;13.80;99.90
43679;DHT22;29279;50.858;4.392;2023-05-15T00:12:01;13.80;99.90
43679;DHT22;29279;50.858;4.392;2023-05-15T00:14:26;13.80;99.90
43679;DHT22;29279;50.858;4.392;2023-05-15T00:16:52;13.80;99.90
43679;DHT22;29279;50.858;4.392;2023-05-15T00:19:18;13.80;99.90
43679;DHT22;29279;50.858;4.392;2023-05-15T00:21:43;13.70;99.90
43679;DHT22;29279;50.858;4.392;2023-05-15T00:24:09;13.80;99.90
43679;DHT22;29279;50.858;4.392;2023-05-15T00:26:35;13.70;99.90
43679;DHT22;29279;50.858;4.392;2023-05-15T00:29:01;13.60;99.90
43679;DHT22;29279;50.858;4.392;2023-05-15T00:31:27;13.60;99.90
43679;DHT22;29279;50.858;4.392;2023-05-15T00:33:52;13.60;99.90
43679;DHT22;29279;50.858;4.392;2023-05-15T00:36:18;13.50;99.90
43679;DHT22;29279;50.858;4.392;2023-05-15T00:38:46;13.60;99.90
43679;DHT22;29279;50.858;4.392;2023-05-15T00:41:12;13.60;99.90
43679;DHT22;29279;50.858;4.392;2023-05-15T00:43:39;13.60;99.90
43679;DHT22;29279;50.858;4.392;2023-05-15T00:46:06;13.50;99.90
43679;DHT22;29279;50.858;4.392;2023-05-15T00:48:33;13.40;99.90
43679;DHT22;29279;50.858;4.392;2023-05-15T00:50:59;13.40;99.90
43679;DHT22;29279;50.858;4.392;2023-05-15T00:53:28;13.50;99.90
43679;DHT22;29279;50.858;4.392;2023-05-15T00:55:57;13.30;99.90
43679;DHT22;29279;50.858;4.392;2023-05-15T00:58:23;13.20;99.90
43679;DHT22;29279;50.858;4.392;2023-05-15T01:00:52;13.20;99.90
43679;DHT22;29279;50.858;4.392;2023-05-15T01:03:18;13.30;99.90
43679;DHT22;29279;50.858;4.392;2023-05-15T01:05:44;13.30;99.90
43679;DHT22;29279;50.858;4.392;2023-05-15T01:08:41;13.10;99.90
43679;DHT22;29279;50.858;4.392;2023-05-15T01:11:08;12.90;99.90
43679;DHT22;29279;50.858;4.392;2023-05-15T01:13:34;13.00;99.90
43679;DHT22;29279;50.858;4.392;2023-05-15T01:16:00;13.10;99.90
43679;DHT22;29279;50.858;4.392;2023-05-15T01:18:26;13.10;99.90
43679;DHT22;29279;50.858;4.392;2023-05-15T01:29:50;12.90;99.90
43679;DHT22;29279;50.858;4.392;2023-05-15T01:32:46;12.90;99.90
43679;DHT22;29279;50.858;4.392;2023-05-15T01:35:30;13.00;99.90
43679;DHT22;29279;50.858;4.392;2023-05-15T01:38:32;12.90;99.90
43679;DHT22;29279;50.858;4.392;2023-05-15T01:43:51;13.00;99.90
43679;DHT22;29279;50.858;4.392;2023-05-15T01:46:22;13.00;99.90
43679;DHT22;29279;50.858;4.392;2023-05-15T01:48:49;13.00;99.90
43679;DHT22;29279;50.858;4.392;2023-05-15T01:51:16;13.10;99.90
43679;DHT22;29279;50.858;4.392;2023-05-15T01:53:43;13.10;99.90
43679;DHT22;29279;50.858;4.392;2023-05-15T01:56:12;13.00;99.90
43679;DHT22;29279;50.858;4.392;2023-05-15T01:58:39;13.00;99.90
43679;DHT22;29279;50.858;4.392;2023-05-15T02:01:07;12.90;99.90
43679;DHT22;29279;50.858;4.392;2023-05-15T02:03:34;13.00;99.90
43679;DHT22;29279;50.858;4.392;2023-05-15T02:06:04;12.90;99.90
43679;DHT22;29279;50.858;4.392;2023-05-15T02:08:31;12.70;99.90
43679;DHT22;29279;50.858;4.392;2023-05-15T02:10:58;12.70;99.90
43679;DHT22;29279;50.858;4.392;2023-05-15T02:13:28;12.80;99.90
43679;DHT22;29279;50.858;4.392;2023-05-15T02:15:55;12.70;99.90
43679;DHT22;29279;50.858;4.392;2023-05-15T02:18:21;12.70;99.90
43679;DHT22;29279;50.858;4.392;2023-05-15T02:20:46;12.80;99.90
43679;DHT22;29279;50.858;4.392;2023-05-15T02:23:12;12.80;99.90
43679;DHT22;29279;50.858;4.392;2023-05-15T02:26:07;12.80;99.90
43679;DHT22;29279;50.858;4.392;2023-05-15T02:31:33;12.90;99.90
43679;DHT22;29279;50.858;4.392;2023-05-15T02:34:08;12.80;99.90
43679;DHT22;29279;50.858;4.392;2023-05-15T02:36:39;12.90;99.90
43679;DHT22;29279;50.858;4.392;2023-05-15T02:39:06;13.10;99.90
43679;DHT22;29279;50.858;4.392;2023-05-15T02:41:32;13.10;99.90
43679;DHT22;29279;50.858;4.392;2023-05-15T02:44:00;13.10;99.90
43679;DHT22;29279;50.858;4.392;2023-05-15T02:46:27;13.00;99.90
43679;DHT22;29279;50.858;4.392;2023-05-15T02:48:54;12.90;99.90
43679;DHT22;29279;50.858;4.392;2023-05-15T02:51:20;12.90;99.90
43679;DHT22;29279;50.858;4.392;2023-05-15T02:53:46;13.00;99.90
43679;DHT22;29279;50.858;4.392;2023-05-15T02:56:12;12.90;99.90
43679;DHT22;29279;50.858;4.392;2023-05-15T02:58:38;12.90;99.90
43679;DHT22;29279;50.858;4.392;2023-05-15T03:01:04;12.90;99.90
43679;DHT22;29279;50.858;4.392;2023-05-15T03:03:30;12.90;99.90
43679;DHT22;29279;50.858;4.392;2023-05-15T03:05:55;12.90;99.90
43679;DHT22;29279;50.858;4.392;2023-05-15T03:08:21;12.90;99.90
43679;DHT22;29279;50.858;4.392;2023-05-15T03:10:47;12.90;99.90
43679;DHT22;29279;50.858;4.392;2023-05-15T03:13:12;12.80;99.90
43679;DHT22;29279;50.858;4.392;2023-05-15T03:15:38;12.80;99.90
43679;DHT22;29279;50.858;4.392;2023-05-15T03:18:04;12.90;99.90
43679;DHT22;29279;50.858;4.392;2023-05-15T03:20:29;13.00;99.90
43679;DHT22;29279;50.858;4.392;2023-05-15T03:22:55;13.00;99.90
43679;DHT22;29279;50.858;4.392;2023-05-15T03:25:21;13.10;99.90
43679;DHT22;29279;50.858;4.392;2023-05-15T03:27:47;13.10;99.90
43679;DHT22;29279;50.858;4.392;2023-05-15T03:30:12;13.20;99.90
43679;DHT22;29279;50.858;4.392;2023-05-15T03:32:38;13.20;99.90
43679;DHT22;29279;50.858;4.392;2023-05-15T03:35:04;13.20;99.90
43679;DHT22;29279;50.858;4.392;2023-05-15T03:37:30;13.20;99.90
43679;DHT22;29279;50.858;4.392;2023-05-15T03:39:55;13.20;99.90
43679;DHT22;29279;50.858;4.392;2023-05-15T03:42:21;13.20;99.90
43679;DHT22;29279;50.858;4.392;2023-05-15T03:44:49;13.30;99.90
43679;DHT22;29279;50.858;4.392;2023-05-15T03:47:15;13.30;99.90
43679;DHT22;29279;50.858;4.392;2023-05-15T03:49:41;13.20;99.90
43679;DHT22;29279;50.858;4.392;2023-05-15T03:52:07;13.30;99.90
43679;DHT22;29279;50.858;4.392;2023-05-15T03:54:34;13.20;99.90
43679;DHT22;29279;50.858;4.392;2023-05-15T03:56:59;13.20;99.90
43679;DHT22;29279;50.858;4.392;2023-05-15T03:59:25;13.20;99.90
43679;DHT22;29279;50.858;4.392;2023-05-15T04:01:51;13.20;99.90
43679;DHT22;29279;50.858;4.392;2023-05-15T04:04:16;13.30;99.90
43679;DHT22;29279;50.858;4.392;2023-05-15T04:06:42;13.20;99.90
43679;DHT22;29279;50.858;4.392;2023-05-15T04:09:08;13.30;99.90
43679;DHT22;29279;50.858;4.392;2023-05-15T04:11:33;13.20;99.90
43679;DHT22;29279;50.858;4.392;2023-05-15T04:14:00;13.30;99.90
43679;DHT22;29279;50.858;4.392;2023-05-15T04:16:25;13.30;99.90
43679;DHT22;29279;50.858;4.392;2023-05-15T04:18:51;13.30;99.90
43679;DHT22;29279;50.858;4.392;2023-05-15T04:21:17;13.40;99.90
43679;DHT22;29279;50.858;4.392;2023-05-15T04:23:42;13.40;99.90
43679;DHT22;29279;50.858;4.392;2023-05-15T04:26:08;13.30;99.90
43679;DHT22;29279;50.858;4.392;2023-05-15T04:28:34;13.30;99.90
43679;DHT22;29279;50.858;4.392;2023-05-15T04:31:00;13.30;99.90
43679;DHT22;29279;50.858;4.392;2023-05-15T04:33:25;13.30;99.90
43679;DHT22;29279;50.858;4.392;2023-05-15T04:35:51;13.40;99.90
43679;DHT22;29279;50.858;4.392;2023-05-15T04:38:17;13.40;99.90
43679;DHT22;29279;50.858;4.392;2023-05-15T04:40:44;13.30;99.90
43679;DHT22;29279;50.858;4.392;2023-05-15T04:43:10;13.20;99.90
43679;DHT22;29279;50.858;4.392;2023-05-15T04:45:36;13.00;99.90
43679;DHT22;29279;50.858;4.392;2023-05-15T04:48:03;13.00;99.90
43679;DHT22;29279;50.858;4.392;2023-05-15T04:50:28;13.10;99.90
43679;DHT22;29279;50.858;4.392;2023-05-15T04:52:54;13.10;99.90
43679;DHT22;29279;50.858;4.392;2023-05-15T04:55:20;13.30;99.90
43679;DHT22;29279;50.858;4.392;2023-05-15T04:57:46;13.30;99.90
43679;DHT22;29279;50.858;4.392;2023-05-15T05:00:13;13.30;99.90
43679;DHT22;29279;50.858;4.392;2023-05-15T05:02:39;13.40;99.90
43679;DHT22;29279;50.858;4.392;2023-05-15T05:05:05;13.40;99.90
43679;DHT22;29279;50.858;4.392;2023-05-15T05:07:32;13.30;99.90
43679;DHT22;29279;50.858;4.392;2023-05-15T05:09:58;13.30;99.90
43679;DHT22;29279;50.858;4.392;2023-05-15T05:12:24;13.30;99.90
43679;DHT22;29279;50.858;4.392;2023-05-15T05:14:50;13.30;99.90
43679;DHT22;29279;50.858;4.392;2023-05-15T05:17:15;13.20;99.90
43679;DHT22;29279;50.858;4.392;2023-05-15T05:19:41;13.30;99.90
43679;DHT22;29279;50.858;4.392;2023-05-15T05:22:07;13.40;99.90
43679;DHT22;29279;50.858;4.392;2023-05-15T05:24:33;13.30;99.90
43679;DHT22;29279;50.858;4.392;2023-05-15T05:27:02;13.20;99.90
43679;DHT22;29279;50.858;4.392;2023-05-15T05:29:29;13.10;99.90
43679;DHT22;29279;50.858;4.392;2023-05-15T05:31:55;13.20;99.90
43679;DHT22;29279;50.858;4.392;2023-05-15T05:34:21;13.30;99.90
43679;DHT22;29279;50.858;4.392;2023-05-15T05:36:48;13.40;99.90
43679;DHT22;29279;50.858;4.392;2023-05-15T05:39:14;13.40;99.90
43679;DHT22;29279;50.858;4.392;2023-05-15T05:41:43;13.40;99.90
43679;DHT22;29279;50.858;4.392;2023-05-15T05:44:09;13.50;99.90
43679;DHT22;29279;50.858;4.392;2023-05-15T05:46:35;13.60;99.90
43679;DHT22;29279;50.858;4.392;2023-05-15T05:49:01;13.50;99.90
43679;DHT22;29279;50.858;4.392;2023-05-15T05:51:27;13.30;99.90
43679;DHT22;29279;50.858;4.392;2023-05-15T05:53:52;13.20;99.90
43679;DHT22;29279;50.858;4.392;2023-05-15T05:56:18;13.40;99.90
43679;DHT22;29279;50.858;4.392;2023-05-15T05:58:46;13.40;99.90
43679;DHT22;29279;50.858;4.392;2023-05-15T06:01:12;13.50;99.90
43679;DHT22;29279;50.858;4.392;2023-05-15T06:03:38;13.50;99.90
43679;DHT22;29279;50.858;4.392;2023-05-15T06:06:04;13.50;99.90
43679;DHT22;29279;50.858;4.392;2023-05-15T06:08:30;13.60;99.90
43679;DHT22;29279;50.858;4.392;2023-05-15T06:10:56;13.60;99.90
43679;DHT22;29279;50.858;4.392;2023-05-15T06:13:22;13.60;99.90
43679;DHT22;29279;50.858;4.392;2023-05-15T06:15:47;13.70;99.90
43679;DHT22;29279;50.858;4.392;2023-05-15T06:18:13;13.80;99.90
43679;DHT22;29279;50.858;4.392;2023-05-15T06:20:39;13.80;99.90
43679;DHT22;29279;50.858;4.392;2023-05-15T06:23:07;13.80;99.90
43679;DHT22;29279;50.858;4.392;2023-05-15T06:25:32;14.00;99.90
43679;DHT22;29279;50.858;4.392;2023-05-15T06:27:58;14.00;99.90
43679;DHT22;29279;50.858;4.392;2023-05-15T06:30:24;14.10;99.90
43679;DHT22;29279;50.858;4.392;2023-05-15T06:32:50;14.20;99.90
43679;DHT22;29279;50.858;4.392;2023-05-15T06:35:16;14.20;99.90
43679;DHT22;29279;50.858;4.392;2023-05-15T06:37:41;14.40;99.90
43679;DHT22;29279;50.858;4.392;2023-05-15T06:40:07;14.40;99.90
43679;DHT22;29279;50.858;4.392;2023-05-15T06:42:33;14.60;99.90
43679;DHT22;29279;50.858;4.392;2023-05-15T06:44:59;14.70;99.90
43679;DHT22;29279;50.858;4.392;2023-05-15T06:47:25;14.80;99.90
43679;DHT22;29279;50.858;4.392;2023-05-15T06:49:50;14.90;99.90
43679;DHT22;29279;50.858;4.392;2023-05-15T06:52:16;15.20;99.90
43679;DHT22;29279;50.858;4.392;2023-05-15T06:54:42;15.40;99.90
43679;DHT22;29279;50.858;4.392;2023-05-15T06:57:07;15.50;99.90
43679;DHT22;29279;50.858;4.392;2023-05-15T06:59:33;15.50;99.90
43679;DHT22;29279;50.858;4.392;2023-05-15T07:02:03;15.60;99.90
43679;DHT22;29279;50.858;4.392;2023-05-15T07:04:29;15.70;99.90
43679;DHT22;29279;50.858;4.392;2023-05-15T07:06:58;15.60;99.90
43679;DHT22;29279;50.858;4.392;2023-05-15T07:09:24;15.70;99.90
43679;DHT22;29279;50.858;4.392;2023-05-15T07:11:49;15.80;99.90
43679;DHT22;29279;50.858;4.392;2023-05-15T07:14:15;15.80;99.90
43679;DHT22;29279;50.858;4.392;2023-05-15T07:16:41;15.80;99.90
43679;DHT22;29279;50.858;4.392;2023-05-15T07:19:07;15.80;99.90
43679;DHT22;29279;50.858;4.392;2023-05-15T07:21:33;15.70;99.90
43679;DHT22;29279;50.858;4.392;2023-05-15T07:24:00;15.60;99.90
43679;DHT22;29279;50.858;4.392;2023-05-15T07:26:26;15.50;99.90
43679;DHT22;29279;50.858;4.392;2023-05-15T07:28:51;15.30;99.90
43679;DHT22;29279;50.858;4.392;2023-05-15T07:31:17;15.40;99.90
43679;DHT22;29279;50.858;4.392;2023-05-15T07:33:43;15.30;99.90
43679;DHT22;29279;50.858;4.392;2023-05-15T07:36:08;15.40;99.90
43679;DHT22;29279;50.858;4.392;2023-05-15T07:38:34;15.60;99.90
43679;DHT22;29279;50.858;4.392;2023-05-15T07:41:00;15.80;99.90
43679;DHT22;29279;50.858;4.392;2023-05-15T07:43:26;16.00;99.90
43679;DHT22;29279;50.858;4.392;2023-05-15T07:45:52;16.30;99.90
43679;DHT22;29279;50.858;4.392;2023-05-15T07:48:18;16.50;99.90
43679;DHT22;29279;50.858;4.392;2023-05-15T07:50:45;16.50;99.90
43679;DHT22;29279;50.858;4.392;2023-05-15T07:53:12;16.40;99.90
43679;DHT22;29279;50.858;4.392;2023-05-15T07:55:37;16.60;99.90
43679;DHT22;29279;50.858;4.392;2023-05-15T07:58:03;16.70;99.90
43679;DHT22;29279;50.858;4.392;2023-05-15T08:00:29;16.80;99.90
43679;DHT22;29279;50.858;4.392;2023-05-15T08:02:55;17.10;99.90
43679;DHT22;29279;50.858;4.392;2023-05-15T08:05:21;17.20;99.90
43679;DHT22;29279;50.858;4.392;2023-05-15T08:07:46;17.40;99.90
43679;DHT22;29279;50.858;4.392;2023-05-15T08:10:12;17.50;99.90
43679;DHT22;29279;50.858;4.392;2023-05-15T08:12:38;17.60;99.90
43679;DHT22;29279;50.858;4.392;2023-05-15T08:15:04;17.70;99.90
43679;DHT22;29279;50.858;4.392;2023-05-15T08:17:30;17.70;99.90
43679;DHT22;29279;50.858;4.392;2023-05-15T08:19:55;17.80;99.90
43679;DHT22;29279;50.858;4.392;2023-05-15T08:22:21;17.80;99.90
43679;DHT22;29279;50.858;4.392;2023-05-15T08:24:47;17.90;99.90
43679;DHT22;29279;50.858;4.392;2023-05-15T08:27:13;17.90;99.90
43679;DHT22;29279;50.858;4.392;2023-05-15T08:29:39;18.00;99.90
43679;DHT22;29279;50.858;4.392;2023-05-15T08:32:05;18.00;99.90
43679;DHT22;29279;50.858;4.392;2023-05-15T08:34:31;18.00;99.90
43679;DHT22;29279;50.858;4.392;2023-05-15T08:36:57;18.00;99.90
43679;DHT22;29279;50.858;4.392;2023-05-15T08:39:23;17.90;99.90
43679;DHT22;29279;50.858;4.392;2023-05-15T08:44:23;18.10;99.90
43679;DHT22;29279;50.858;4.392;2023-05-15T08:46:49;18.00;99.90
43679;DHT22;29279;50.858;4.392;2023-05-15T08:49:19;18.10;99.90
43679;DHT22;29279;50.858;4.392;2023-05-15T08:51:47;18.00;99.90
43679;DHT22;29279;50.858;4.392;2023-05-15T08:54:14;17.90;99.90
43679;DHT22;29279;50.858;4.392;2023-05-15T08:56:42;17.90;99.90
43679;DHT22;29279;50.858;4.392;2023-05-15T08:59:08;18.00;99.90
43679;DHT22;29279;50.858;4.392;2023-05-15T09:01:35;18.00;99.90
43679;DHT22;29279;50.858;4.392;2023-05-15T09:04:01;18.10;99.90
43679;DHT22;29279;50.858;4.392;2023-05-15T09:06:27;18.30;99.90
43679;DHT22;29279;50.858;4.392;2023-05-15T09:08:55;18.40;99.90
43679;DHT22;29279;50.858;4.392;2023-05-15T09:11:23;18.40;99.90
43679;DHT22;29279;50.858;4.392;2023-05-15T09:13:49;18.50;99.90
43679;DHT22;29279;50.858;4.392;2023-05-15T09:16:15;18.60;99.90
43679;DHT22;29279;50.858;4.392;2023-05-15T09:18:41;18.90;99.90
43679;DHT22;29279;50.858;4.392;2023-05-15T09:21:24;19.10;99.90
43679;DHT22;29279;50.858;4.392;2023-05-15T09:23:50;19.30;99.90
43679;DHT22;29279;50.858;4.392;2023-05-15T09:26:15;19.40;99.90
43679;DHT22;29279;50.858;4.392;2023-05-15T09:28:42;19.40;99.90
43679;DHT22;29279;50.858;4.392;2023-05-15T09:31:07;19.20;99.90
43679;DHT22;29279;50.858;4.392;2023-05-15T09:33:35;19.20;99.90
43679;DHT22;29279;50.858;4.392;2023-05-15T09:36:03;19.10;99.80
43679;DHT22;29279;50.858;4.392;2023-05-15T09:38:32;18.90;99.90
43679;DHT22;29279;50.858;4.392;2023-05-15T09:41:03;18.90;99.90
43679;DHT22;29279;50.858;4.392;2023-05-15T09:43:33;18.90;99.90
43679;DHT22;29279;50.858;4.392;2023-05-15T09:45:58;18.90;99.90
43679;DHT22;29279;50.858;4.392;2023-05-15T09:48:24;18.90;99.90
43679;DHT22;29279;50.858;4.392;2023-05-15T09:50:50;18.80;99.90
43679;DHT22;29279;50.858;4.392;2023-05-15T09:53:16;18.80;99.90
43679;DHT22;29279;50.858;4.392;2023-05-15T09:55:42;18.80;99.90
43679;DHT22;29279;50.858;4.392;2023-05-15T09:58:13;19.00;99.90
43679;DHT22;29279;50.858;4.392;2023-05-15T10:00:41;19.30;99.90
43679;DHT22;29279;50.858;4.392;2023-05-15T10:03:08;19.40;99.90
43679;DHT22;29279;50.858;4.392;2023-05-15T10:05:34;19.50;99.80
43679;DHT22;29279;50.858;4.392;2023-05-15T10:08:00;19.70;99.50
43679;DHT22;29279;50.858;4.392;2023-05-15T10:10:27;19.70;99.70
43679;DHT22;29279;50.858;4.392;2023-05-15T10:12:54;19.50;99.70
43679;DHT22;29279;50.858;4.392;2023-05-15T10:15:23;19.60;99.50
43679;DHT22;29279;50.858;4.392;2023-05-15T10:17:50;19.70;99.30
43679;DHT22;29279;50.858;4.392;2023-05-15T10:20:18;19.90;99.40
43679;DHT22;29279;50.858;4.392;2023-05-15T10:22:49;20.00;99.40
43679;DHT22;29279;50.858;4.392;2023-05-15T10:28:02;19.80;99.40
43679;DHT22;29279;50.858;4.392;2023-05-15T10:30:28;19.70;99.60
43679;DHT22;29279;50.858;4.392;2023-05-15T10:32:55;19.50;99.70
43679;DHT22;29279;50.858;4.392;2023-05-15T10:35:22;19.30;99.90
43679;DHT22;29279;50.858;4.392;2023-05-15T10:37:48;19.10;99.90
43679;DHT22;29279;50.858;4.392;2023-05-15T10:40:15;19.10;99.90
43679;DHT22;29279;50.858;4.392;2023-05-15T10:42:43;19.00;99.90
43679;DHT22;29279;50.858;4.392;2023-05-15T10:45:10;19.10;99.90
43679;DHT22;29279;50.858;4.392;2023-05-15T10:47:37;19.30;99.90
43679;DHT22;29279;50.858;4.392;2023-05-15T10:50:07;19.40;99.90
43679;DHT22;29279;50.858;4.392;2023-05-15T10:52:37;19.40;99.90
43679;DHT22;29279;50.858;4.392;2023-05-15T10:55:07;19.50;99.90
43679;DHT22;29279;50.858;4.392;2023-05-15T10:57:34;19.60;99.90
43679;DHT22;29279;50.858;4.392;2023-05-15T11:00:00;19.40;99.90
43679;DHT22;29279;50.858;4.392;2023-05-15T11:02:28;19.50;99.90
43679;DHT22;29279;50.858;4.392;2023-05-15T11:04:56;19.80;99.90
43679;DHT22;29279;50.858;4.392;2023-05-15T11:07:22;19.90;99.90
43679;DHT22;29279;50.858;4.392;2023-05-15T11:09:49;20.00;99.90
43679;DHT22;29279;50.858;4.392;2023-05-15T11:12:15;20.10;99.90
43679;DHT22;29279;50.858;4.392;2023-05-15T11:17:19;20.00;99.90
43679;DHT22;29279;50.858;4.392;2023-05-15T11:20:06;20.10;99.90
43679;DHT22;29279;50.858;4.392;2023-05-15T11:22:33;20.20;99.90
43679;DHT22;29279;50.858;4.392;2023-05-15T11:25:28;20.00;99.90
43679;DHT22;29279;50.858;4.392;2023-05-15T11:27:54;19.80;99.90
43679;DHT22;29279;50.858;4.392;2023-05-15T11:30:22;19.80;99.90
43679;DHT22;29279;50.858;4.392;2023-05-15T11:33:00;19.60;99.90
43679;DHT22;29279;50.858;4.392;2023-05-15T11:37:52;19.50;99.90
43679;DHT22;29279;50.858;4.392;2023-05-15T11:40:29;19.40;99.90
43679;DHT22;29279;50.858;4.392;2023-05-15T11:43:07;19.30;99.90
43679;DHT22;29279;50.858;4.392;2023-05-15T11:45:38;18.90;99.90
43679;DHT22;29279;50.858;4.392;2023-05-15T11:48:09;18.50;99.90
43679;DHT22;29279;50.858;4.392;2023-05-15T11:50:36;18.40;99.90
43679;DHT22;29279;50.858;4.392;2023-05-15T11:53:04;18.60;99.90
43679;DHT22;29279;50.858;4.392;2023-05-15T11:55:32;18.60;99.90
43679;DHT22;29279;50.858;4.392;2023-05-15T11:57:58;18.50;99.90
43679;DHT22;29279;50.858;4.392;2023-05-15T12:00:24;18.70;99.90
43679;DHT22;29279;50.858;4.392;2023-05-15T12:02:50;18.80;99.90
43679;DHT22;29279;50.858;4.392;2023-05-15T12:05:15;18.80;99.90
43679;DHT22;29279;50.858;4.392;2023-05-15T12:07:43;18.80;99.90
43679;DHT22;29279;50.858;4.392;2023-05-15T12:10:10;18.50;99.90
43679;DHT22;29279;50.858;4.392;2023-05-15T12:12:41;18.20;99.90
43679;DHT22;29279;50.858;4.392;2023-05-15T12:15:11;18.30;99.90
43679;DHT22;29279;50.858;4.392;2023-05-15T12:17:40;18.30;99.90
43679;DHT22;29279;50.858;4.392;2023-05-15T12:20:16;18.20;99.90
43679;DHT22;29279;50.858;4.392;2023-05-15T12:22:42;18.00;99.90
43679;DHT22;29279;50.858;4.392;2023-05-15T12:25:09;17.90;99.90
43679;DHT22;29279;50.858;4.392;2023-05-15T12:27:36;17.90;99.90
43679;DHT22;29279;50.858;4.392;2023-05-15T12:30:03;18.00;99.90
43679;DHT22;29279;50.858;4.392;2023-05-15T12:32:34;18.00;99.90
43679;DHT22;29279;50.858;4.392;2023-05-15T12:35:01;18.00;99.90
43679;DHT22;29279;50.858;4.392;2023-05-15T12:37:27;17.80;99.90
43679;DHT22;29279;50.858;4.392;2023-05-15T12:39:59;17.70;99.90
43679;DHT22;29279;50.858;4.392;2023-05-15T12:42:26;17.70;99.90
43679;DHT22;29279;50.858;4.392;2023-05-15T12:44:53;17.50;99.90
43679;DHT22;29279;50.858;4.392;2023-05-15T12:47:23;17.10;99.90
43679;DHT22;29279;50.858;4.392;2023-05-15T12:49:49;16.70;99.90
43679;DHT22;29279;50.858;4.392;2023-05-15T12:52:15;16.70;99.90
43679;DHT22;29279;50.858;4.392;2023-05-15T12:54:42;16.60;99.90
43679;DHT22;29279;50.858;4.392;2023-05-15T12:57:09;16.60;99.90
43679;DHT22;29279;50.858;4.392;2023-05-15T12:59:35;16.60;99.90
43679;DHT22;29279;50.858;4.392;2023-05-15T13:02:03;16.30;99.90
43679;DHT22;29279;50.858;4.392;2023-05-15T13:04:32;16.10;99.90
43679;DHT22;29279;50.858;4.392;2023-05-15T13:06:57;16.00;99.90
43679;DHT22;29279;50.858;4.392;2023-05-15T13:09:23;15.80;99.90
43679;DHT22;29279;50.858;4.392;2023-05-15T13:11:53;15.70;99.90
43679;DHT22;29279;50.858;4.392;2023-05-15T13:14:19;15.80;99.90
43679;DHT22;29279;50.858;4.392;2023-05-15T13:16:47;15.80;99.90
43679;DHT22;29279;50.858;4.392;2023-05-15T13:19:12;15.80;99.90
43679;DHT22;29279;50.858;4.392;2023-05-15T13:21:39;15.70;99.90
43679;DHT22;29279;50.858;4.392;2023-05-15T13:24:05;15.70;99.90
43679;DHT22;29279;50.858;4.392;2023-05-15T13:26:31;15.60;99.90
43679;DHT22;29279;50.858;4.392;2023-05-15T13:28:57;15.40;99.90
43679;DHT22;29279;50.858;4.392;2023-05-15T13:31:24;15.20;99.90
43679;DHT22;29279;50.858;4.392;2023-05-15T13:33:50;15.10;99.90
43679;DHT22;29279;50.858;4.392;2023-05-15T13:36:15;15.20;99.90
43679;DHT22;29279;50.858;4.392;2023-05-15T13:38:41;15.20;99.90
43679;DHT22;29279;50.858;4.392;2023-05-15T13:41:07;15.10;99.90
43679;DHT22;29279;50.858;4.392;2023-05-15T13:43:33;15.10;99.90
43679;DHT22;29279;50.858;4.392;2023-05-15T13:45:59;15.00;99.90
43679;DHT22;29279;50.858;4.392;2023-05-15T13:48:24;15.00;99.90
43679;DHT22;29279;50.858;4.392;2023-05-15T13:50:50;15.10;99.90
43679;DHT22;29279;50.858;4.392;2023-05-15T13:53:16;15.20;99.90
43679;DHT22;29279;50.858;4.392;2023-05-15T13:55:45;15.30;99.90
43679;DHT22;29279;50.858;4.392;2023-05-15T13:58:14;15.30;99.90
43679;DHT22;29279;50.858;4.392;2023-05-15T14:00:43;15.30;99.90
43679;DHT22;29279;50.858;4.392;2023-05-15T14:03:09;15.30;99.90
43679;DHT22;29279;50.858;4.392;2023-05-15T14:05:35;15.20;99.90
43679;DHT22;29279;50.858;4.392;2023-05-15T14:08:01;15.20;99.90
43679;DHT22;29279;50.858;4.392;2023-05-15T14:10:27;15.20;99.90
43679;DHT22;29279;50.858;4.392;2023-05-15T14:12:53;15.20;99.90
43679;DHT22;29279;50.858;4.392;2023-05-15T14:15:18;15.30;99.90
43679;DHT22;29279;50.858;4.392;2023-05-15T14:17:44;15.40;99.90
43679;DHT22;29279;50.858;4.392;2023-05-15T14:20:12;15.30;99.90
43679;DHT22;29279;50.858;4.392;2023-05-15T14:22:39;15.30;99.90
43679;DHT22;29279;50.858;4.392;2023-05-15T14:25:05;15.20;99.90
43679;DHT22;29279;50.858;4.392;2023-05-15T14:27:31;15.20;99.90
43679;DHT22;29279;50.858;4.392;2023-05-15T14:29:57;15.20;99.90
43679;DHT22;29279;50.858;4.392;2023-05-15T14:32:23;15.70;99.90
43679;DHT22;29279;50.858;4.392;2023-05-15T14:34:49;15.80;99.90
43679;DHT22;29279;50.858;4.392;2023-05-15T14:37:15;15.80;99.90
43679;DHT22;29279;50.858;4.392;2023-05-15T14:39:40;15.70;99.90
43679;DHT22;29279;50.858;4.392;2023-05-15T14:42:07;15.50;99.90
43679;DHT22;29279;50.858;4.392;2023-05-15T14:44:35;15.40;99.90
43679;DHT22;29279;50.858;4.392;2023-05-15T14:47:09;15.10;99.90
43679;DHT22;29279;50.858;4.392;2023-05-15T14:49:35;15.10;99.90
43679;DHT22;29279;50.858;4.392;2023-05-15T14:52:09;15.20;99.90
43679;DHT22;29279;50.858;4.392;2023-05-15T14:54:36;15.20;99.90
43679;DHT22;29279;50.858;4.392;2023-05-15T14:57:02;15.30;99.90
43679;DHT22;29279;50.858;4.392;2023-05-15T14:59:28;15.50;99.90
43679;DHT22;29279;50.858;4.392;2023-05-15T15:01:54;15.40;99.90
43679;DHT22;29279;50.858;4.392;2023-05-15T15:04:20;15.50;99.90
43679;DHT22;29279;50.858;4.392;2023-05-15T15:06:48;15.60;99.90
43679;DHT22;29279;50.858;4.392;2023-05-15T15:09:14;15.50;99.90
43679;DHT22;29279;50.858;4.392;2023-05-15T15:11:40;15.50;99.90
43679;DHT22;29279;50.858;4.392;2023-05-15T15:14:06;15.50;99.90
43679;DHT22;29279;50.858;4.392;2023-05-15T15:16:32;15.50;99.90
43679;DHT22;29279;50.858;4.392;2023-05-15T15:18:58;15.50;99.90
43679;DHT22;29279;50.858;4.392;2023-05-15T15:21:24;15.50;99.90
43679;DHT22;29279;50.858;4.392;2023-05-15T15:23:49;15.40;99.90
43679;DHT22;29279;50.858;4.392;2023-05-15T15:26:15;15.40;99.90
43679;DHT22;29279;50.858;4.392;2023-05-15T15:28:41;15.40;99.90
43679;DHT22;29279;50.858;4.392;2023-05-15T15:31:08;15.40;99.90
43679;DHT22;29279;50.858;4.392;2023-05-15T15:33:34;15.40;99.90
43679;DHT22;29279;50.858;4.392;2023-05-15T15:36:00;15.30;99.90
43679;DHT22;29279;50.858;4.392;2023-05-15T15:38:26;15.40;99.90
43679;DHT22;29279;50.858;4.392;2023-05-15T15:40:55;15.50;99.90
43679;DHT22;29279;50.858;4.392;2023-05-15T15:43:20;15.50;99.90
43679;DHT22;29279;50.858;4.392;2023-05-15T15:45:46;15.50;99.90
43679;DHT22;29279;50.858;4.392;2023-05-15T15:48:12;15.40;99.90
43679;DHT22;29279;50.858;4.392;2023-05-15T15:50:37;15.60;99.90
43679;DHT22;29279;50.858;4.392;2023-05-15T15:53:03;15.50;99.90
43679;DHT22;29279;50.858;4.392;2023-05-15T15:55:29;15.40;99.90